sensor_id;sensor_type;location;lat;lon;timestamp;pressure;altitude;pressure_sealevel;temperature;humidity
1480;BME280;732;51.698;4.886;2023-06-22T00:01:25;102073.75;;;15.65;65.58
1480;BME280;732;51.698;4.886;2023-06-22T00:03:55;102069.53;;;15.63;65.09
1480;BME280;732;51.698;4.886;2023-06-22T00:06:23;102067.38;;;15.58;65.71
1480;BME280;732;51.698;4.886;2023-06-22T00:08:52;102071.19;;;15.49;66.11
1480;BME280;732;51.698;4.886;2023-06-22T00:11:20;102074.63;;;15.43;66.10
1480;BME280;732;51.698;4.886;2023-06-22T00:13:48;102060.06;;;15.29;66.48
1480;BME280;732;51.698;4.886;2023-06-22T00:16:18;102079.38;;;15.26;67.08
1480;BME280;732;51.698;4.886;2023-06-22T00:18:46;102080.34;;;15.33;66.84
1480;BME280;732;51.698;4.886;2023-06-22T00:21:17;102073.72;;;15.35;66.71
1480;BME280;732;51.698;4.886;2023-06-22T00:23:47;102074.16;;;15.09;67.70
1480;BME280;732;51.698;4.886;2023-06-22T00:26:17;102066.97;;;15.16;67.26
1480;BME280;732;51.698;4.886;2023-06-22T00:28:45;102066.31;;;15.14;67.58
1480;BME280;732;51.698;4.886;2023-06-22T00:31:13;102065.59;;;15.20;67.59
1480;BME280;732;51.698;4.886;2023-06-22T00:33:42;102053.91;;;15.20;67.06
1480;BME280;732;51.698;4.886;2023-06-22T00:36:10;102034.13;;;15.04;67.92
1480;BME280;732;51.698;4.886;2023-06-22T00:38:44;102057.63;;;15.19;67.55
1480;BME280;732;51.698;4.886;2023-06-22T00:41:12;102060.19;;;15.20;67.45
1480;BME280;732;51.698;4.886;2023-06-22T00:43:41;102048.03;;;15.16;67.34
1480;BME280;732;51.698;4.886;2023-06-22T00:46:09;102055.84;;;15.11;67.28
1480;BME280;732;51.698;4.886;2023-06-22T00:48:39;102062.94;;;14.89;68.43
1480;BME280;732;51.698;4.886;2023-06-22T00:51:11;102050.72;;;14.78;68.81
1480;BME280;732;51.698;4.886;2023-06-22T00:53:39;102063.38;;;14.78;68.97
1480;BME280;732;51.698;4.886;2023-06-22T00:56:10;102014.66;;;14.48;68.84
1480;BME280;732;51.698;4.886;2023-06-22T00:58:39;102048.78;;;14.87;68.46
1480;BME280;732;51.698;4.886;2023-06-22T01:01:09;102061.34;;;14.80;69.14
1480;BME280;732;51.698;4.886;2023-06-22T01:03:37;102052.34;;;14.64;69.44
1480;BME280;732;51.698;4.886;2023-06-22T01:06:10;102061.53;;;14.78;69.31
1480;BME280;732;51.698;4.886;2023-06-22T01:08:47;102060.81;;;14.84;68.88
1480;BME280;732;51.698;4.886;2023-06-22T01:11:26;102057.41;;;14.90;68.83
1480;BME280;732;51.698;4.886;2023-06-22T01:14:02;102051.13;;;14.90;68.49
1480;BME280;732;51.698;4.886;2023-06-22T01:16:35;102051.56;;;14.79;68.48
1480;BME280;732;51.698;4.886;2023-06-22T01:19:15;102048.03;;;14.78;68.24
1480;BME280;732;51.698;4.886;2023-06-22T01:21:49;102035.88;;;14.74;68.67
1480;BME280;732;51.698;4.886;2023-06-22T01:24:24;102042.25;;;14.81;68.43
1480;BME280;732;51.698;4.886;2023-06-22T01:27:09;102023.47;;;14.65;68.73
1480;BME280;732;51.698;4.886;2023-06-22T01:29:45;102013.97;;;14.69;68.81
1480;BME280;732;51.698;4.886;2023-06-22T01:32:15;102040.56;;;14.80;68.93
1480;BME280;732;51.698;4.886;2023-06-22T01:34:44;102038.81;;;14.87;68.28
1480;BME280;732;51.698;4.886;2023-06-22T01:37:14;102041.47;;;14.72;69.27
1480;BME280;732;51.698;4.886;2023-06-22T01:39:43;102040.44;;;14.73;69.39
1480;BME280;732;51.698;4.886;2023-06-22T01:42:12;102021.88;;;14.70;69.03
1480;BME280;732;51.698;4.886;2023-06-22T01:44:41;102024.06;;;14.75;68.64
1480;BME280;732;51.698;4.886;2023-06-22T01:47:11;102029.75;;;14.80;68.65
1480;BME280;732;51.698;4.886;2023-06-22T01:49:43;102022.75;;;14.71;68.08
1480;BME280;732;51.698;4.886;2023-06-22T01:52:11;102027.19;;;14.64;68.74
1480;BME280;732;51.698;4.886;2023-06-22T01:54:40;102043.34;;;14.72;69.10
1480;BME280;732;51.698;4.886;2023-06-22T01:57:11;102037.66;;;14.67;69.56
1480;BME280;732;51.698;4.886;2023-06-22T01:59:48;102049.75;;;14.71;69.16
1480;BME280;732;51.698;4.886;2023-06-22T02:02:21;102015.78;;;14.53;69.13
1480;BME280;732;51.698;4.886;2023-06-22T02:05:00;102047.09;;;14.63;69.45
1480;BME280;732;51.698;4.886;2023-06-22T02:07:37;102040.34;;;14.67;69.57
1480;BME280;732;51.698;4.886;2023-06-22T02:10:10;102014.00;;;14.46;69.35
1480;BME280;732;51.698;4.886;2023-06-22T02:12:42;102039.09;;;14.54;69.43
1480;BME280;732;51.698;4.886;2023-06-22T02:15:11;102040.88;;;14.62;69.26
1480;BME280;732;51.698;4.886;2023-06-22T02:17:44;102011.13;;;14.47;69.21
1480;BME280;732;51.698;4.886;2023-06-22T02:20:13;102034.41;;;14.48;69.30
1480;BME280;732;51.698;4.886;2023-06-22T02:22:42;102016.75;;;14.37;69.30
1480;BME280;732;51.698;4.886;2023-06-22T02:25:11;102043.38;;;14.40;70.19
1480;BME280;732;51.698;4.886;2023-06-22T02:27:39;102022.34;;;14.36;70.02
1480;BME280;732;51.698;4.886;2023-06-22T02:30:09;102011.25;;;14.31;69.87
1480;BME280;732;51.698;4.886;2023-06-22T02:32:39;102032.22;;;14.43;69.40
1480;BME280;732;51.698;4.886;2023-06-22T02:35:11;102019.44;;;14.37;69.49
1480;BME280;732;51.698;4.886;2023-06-22T02:37:40;102025.56;;;14.31;70.05
1480;BME280;732;51.698;4.886;2023-06-22T02:40:09;102021.47;;;14.12;70.54
1480;BME280;732;51.698;4.886;2023-06-22T02:42:39;102027.66;;;14.21;70.50
1480;BME280;732;51.698;4.886;2023-06-22T02:45:10;102023.09;;;14.21;70.38
1480;BME280;732;51.698;4.886;2023-06-22T02:47:38;101986.78;;;14.01;70.32
1480;BME280;732;51.698;4.886;2023-06-22T02:50:07;102019.56;;;14.21;69.95
1480;BME280;732;51.698;4.886;2023-06-22T02:52:38;102026.16;;;14.18;70.16
1480;BME280;732;51.698;4.886;2023-06-22T02:55:08;102040.84;;;14.16;70.43
1480;BME280;732;51.698;4.886;2023-06-22T02:57:37;102022.19;;;14.06;70.40
1480;BME280;732;51.698;4.886;2023-06-22T03:00:13;102001.13;;;13.93;71.16
1480;BME280;732;51.698;4.886;2023-06-22T03:02:47;102001.31;;;13.91;72.03
1480;BME280;732;51.698;4.886;2023-06-22T03:05:17;102010.00;;;14.10;71.70
1480;BME280;732;51.698;4.886;2023-06-22T03:07:49;101991.84;;;13.95;71.95
1480;BME280;732;51.698;4.886;2023-06-22T03:10:18;102007.72;;;13.99;71.85
1480;BME280;732;51.698;4.886;2023-06-22T03:12:46;101995.22;;;13.98;72.38
1480;BME280;732;51.698;4.886;2023-06-22T03:15:14;101968.31;;;13.81;72.72
1480;BME280;732;51.698;4.886;2023-06-22T03:17:50;101977.53;;;13.95;72.66
1480;BME280;732;51.698;4.886;2023-06-22T03:20:18;101954.13;;;13.87;72.32
1480;BME280;732;51.698;4.886;2023-06-22T03:22:48;101978.38;;;13.95;73.41
1480;BME280;732;51.698;4.886;2023-06-22T03:25:17;101985.13;;;14.00;73.62
1480;BME280;732;51.698;4.886;2023-06-22T03:27:48;101955.84;;;13.80;73.49
1480;BME280;732;51.698;4.886;2023-06-22T03:30:16;101982.72;;;14.05;73.55
1480;BME280;732;51.698;4.886;2023-06-22T03:32:45;101987.41;;;14.11;73.13
1480;BME280;732;51.698;4.886;2023-06-22T03:35:15;101985.00;;;14.16;72.32
1480;BME280;732;51.698;4.886;2023-06-22T03:37:43;101987.59;;;14.09;72.31
1480;BME280;732;51.698;4.886;2023-06-22T03:40:13;101998.88;;;14.13;72.26
1480;BME280;732;51.698;4.886;2023-06-22T03:42:42;101998.19;;;14.11;71.95
1480;BME280;732;51.698;4.886;2023-06-22T03:45:10;101991.00;;;14.03;72.19
1480;BME280;732;51.698;4.886;2023-06-22T03:47:40;102003.22;;;14.14;72.32
1480;BME280;732;51.698;4.886;2023-06-22T03:50:09;101995.59;;;14.18;72.07
1480;BME280;732;51.698;4.886;2023-06-22T03:52:38;101996.47;;;14.18;71.91
1480;BME280;732;51.698;4.886;2023-06-22T03:55:07;101987.16;;;14.21;71.72
1480;BME280;732;51.698;4.886;2023-06-22T03:57:37;101966.22;;;14.00;73.14
1480;BME280;732;51.698;4.886;2023-06-22T04:00:08;101969.09;;;13.98;73.84
1480;BME280;732;51.698;4.886;2023-06-22T04:02:41;101975.94;;;14.09;73.45
1480;BME280;732;51.698;4.886;2023-06-22T04:05:10;101979.72;;;14.23;72.70
1480;BME280;732;51.698;4.886;2023-06-22T04:07:38;101985.84;;;14.40;72.13
1480;BME280;732;51.698;4.886;2023-06-22T04:10:08;101962.75;;;14.37;71.76
1480;BME280;732;51.698;4.886;2023-06-22T04:12:40;101952.97;;;14.36;71.77
1480;BME280;732;51.698;4.886;2023-06-22T04:15:10;101952.78;;;14.38;71.86
1480;BME280;732;51.698;4.886;2023-06-22T04:17:39;101965.97;;;14.56;71.45
1480;BME280;732;51.698;4.886;2023-06-22T04:20:09;101941.38;;;14.51;71.65
1480;BME280;732;51.698;4.886;2023-06-22T04:22:37;101979.28;;;14.81;71.07
1480;BME280;732;51.698;4.886;2023-06-22T04:25:06;101987.66;;;14.86;71.13
1480;BME280;732;51.698;4.886;2023-06-22T04:27:35;101965.94;;;14.79;70.83
1480;BME280;732;51.698;4.886;2023-06-22T04:30:09;101986.69;;;15.02;70.91
1480;BME280;732;51.698;4.886;2023-06-22T04:32:39;101993.22;;;15.07;70.80
1480;BME280;732;51.698;4.886;2023-06-22T04:35:09;101983.06;;;15.10;70.72
1480;BME280;732;51.698;4.886;2023-06-22T04:37:37;101964.63;;;15.13;69.99
1480;BME280;732;51.698;4.886;2023-06-22T04:40:07;101991.09;;;15.33;69.61
1480;BME280;732;51.698;4.886;2023-06-22T04:42:38;102003.88;;;15.39;69.33
1480;BME280;732;51.698;4.886;2023-06-22T04:45:09;101991.84;;;15.42;69.90
1480;BME280;732;51.698;4.886;2023-06-22T04:47:37;101999.22;;;15.48;69.41
1480;BME280;732;51.698;4.886;2023-06-22T04:50:07;101993.16;;;15.46;69.14
1480;BME280;732;51.698;4.886;2023-06-22T04:52:35;101998.34;;;15.47;69.40
1480;BME280;732;51.698;4.886;2023-06-22T04:55:05;101987.81;;;15.52;69.19
1480;BME280;732;51.698;4.886;2023-06-22T04:57:33;101987.34;;;15.34;69.81
1480;BME280;732;51.698;4.886;2023-06-22T05:00:03;101990.72;;;15.36;69.29
1480;BME280;732;51.698;4.886;2023-06-22T05:02:42;101991.53;;;15.51;69.11
1480;BME280;732;51.698;4.886;2023-06-22T05:05:11;101983.63;;;15.50;68.98
1480;BME280;732;51.698;4.886;2023-06-22T05:07:43;101978.97;;;15.44;68.92
1480;BME280;732;51.698;4.886;2023-06-22T05:10:12;102001.16;;;15.69;69.08
1480;BME280;732;51.698;4.886;2023-06-22T05:12:41;102004.13;;;15.74;68.91
1480;BME280;732;51.698;4.886;2023-06-22T05:15:09;102000.31;;;15.83;68.81
1480;BME280;732;51.698;4.886;2023-06-22T05:17:38;101980.13;;;15.86;68.23
1480;BME280;732;51.698;4.886;2023-06-22T05:20:12;101994.41;;;15.95;68.24
1480;BME280;732;51.698;4.886;2023-06-22T05:22:41;101974.72;;;15.86;68.25
1480;BME280;732;51.698;4.886;2023-06-22T05:25:11;101993.72;;;16.08;68.38
1480;BME280;732;51.698;4.886;2023-06-22T05:27:40;101991.03;;;16.08;68.11
1480;BME280;732;51.698;4.886;2023-06-22T05:30:09;101996.03;;;16.11;67.93
1480;BME280;732;51.698;4.886;2023-06-22T05:32:38;101996.75;;;16.19;67.46
1480;BME280;732;51.698;4.886;2023-06-22T05:35:08;101992.72;;;16.30;67.75
1480;BME280;732;51.698;4.886;2023-06-22T05:37:38;101990.72;;;16.39;67.52
1480;BME280;732;51.698;4.886;2023-06-22T05:40:08;101987.16;;;16.60;66.40
1480;BME280;732;51.698;4.886;2023-06-22T05:42:36;101987.91;;;16.76;66.27
1480;BME280;732;51.698;4.886;2023-06-22T05:45:06;101959.41;;;16.80;65.50
1480;BME280;732;51.698;4.886;2023-06-22T05:47:34;101992.56;;;17.10;65.40
1480;BME280;732;51.698;4.886;2023-06-22T05:50:04;101974.84;;;17.14;64.61
1480;BME280;732;51.698;4.886;2023-06-22T05:52:40;101986.75;;;17.55;64.56
1480;BME280;732;51.698;4.886;2023-06-22T05:55:09;101977.03;;;17.74;63.50
1480;BME280;732;51.698;4.886;2023-06-22T05:57:38;101975.41;;;17.87;62.40
1480;BME280;732;51.698;4.886;2023-06-22T06:00:08;101975.50;;;18.13;62.57
1480;BME280;732;51.698;4.886;2023-06-22T06:02:39;101971.78;;;18.41;62.69
1480;BME280;732;51.698;4.886;2023-06-22T06:05:11;101975.56;;;18.81;61.50
1480;BME280;732;51.698;4.886;2023-06-22T06:07:42;101954.63;;;18.88;60.58
1480;BME280;732;51.698;4.886;2023-06-22T06:10:11;101965.06;;;19.18;59.02
1480;BME280;732;51.698;4.886;2023-06-22T06:12:40;101950.66;;;18.84;59.48
1480;BME280;732;51.698;4.886;2023-06-22T06:15:09;101942.94;;;18.81;59.10
1480;BME280;732;51.698;4.886;2023-06-22T06:17:46;101960.06;;;18.88;59.60
1480;BME280;732;51.698;4.886;2023-06-22T06:20:15;101960.69;;;19.17;59.22
1480;BME280;732;51.698;4.886;2023-06-22T06:22:44;101935.56;;;19.08;58.40
1480;BME280;732;51.698;4.886;2023-06-22T06:25:14;101958.16;;;19.22;57.63
1480;BME280;732;51.698;4.886;2023-06-22T06:27:44;101970.44;;;19.45;57.85
1480;BME280;732;51.698;4.886;2023-06-22T06:30:14;101951.13;;;19.53;56.62
1480;BME280;732;51.698;4.886;2023-06-22T06:32:43;101951.88;;;19.73;56.99
1480;BME280;732;51.698;4.886;2023-06-22T06:35:14;101941.13;;;19.85;56.57
1480;BME280;732;51.698;4.886;2023-06-22T06:37:47;101965.25;;;20.20;56.29
1480;BME280;732;51.698;4.886;2023-06-22T06:40:17;101946.81;;;20.16;55.19
1480;BME280;732;51.698;4.886;2023-06-22T06:42:48;101938.09;;;20.32;55.17
1480;BME280;732;51.698;4.886;2023-06-22T06:45:18;101954.81;;;20.68;55.19
1480;BME280;732;51.698;4.886;2023-06-22T06:47:46;101957.19;;;20.83;54.40
1480;BME280;732;51.698;4.886;2023-06-22T06:50:15;101928.50;;;20.55;53.52
1480;BME280;732;51.698;4.886;2023-06-22T06:52:45;101956.25;;;20.70;52.92
1480;BME280;732;51.698;4.886;2023-06-22T06:55:14;101956.00;;;20.97;52.99
1480;BME280;732;51.698;4.886;2023-06-22T06:57:43;101950.53;;;21.16;52.72
1480;BME280;732;51.698;4.886;2023-06-22T07:00:13;101948.44;;;21.37;52.12
1480;BME280;732;51.698;4.886;2023-06-22T07:02:44;101934.69;;;21.62;52.55
1480;BME280;732;51.698;4.886;2023-06-22T07:05:14;101954.47;;;21.76;49.53
1480;BME280;732;51.698;4.886;2023-06-22T07:07:44;101930.16;;;21.86;50.21
1480;BME280;732;51.698;4.886;2023-06-22T07:10:12;101938.66;;;21.78;48.99
1480;BME280;732;51.698;4.886;2023-06-22T07:12:43;101952.94;;;22.10;49.04
1480;BME280;732;51.698;4.886;2023-06-22T07:15:13;101945.84;;;22.21;49.57
1480;BME280;732;51.698;4.886;2023-06-22T07:17:41;101949.31;;;22.28;49.31
1480;BME280;732;51.698;4.886;2023-06-22T07:20:11;101930.50;;;22.20;48.86
1480;BME280;732;51.698;4.886;2023-06-22T07:22:41;101921.47;;;22.20;48.47
1480;BME280;732;51.698;4.886;2023-06-22T07:25:11;101943.25;;;22.50;48.65
1480;BME280;732;51.698;4.886;2023-06-22T07:27:46;101928.25;;;22.29;48.37
1480;BME280;732;51.698;4.886;2023-06-22T07:30:15;101945.38;;;22.48;48.82
1480;BME280;732;51.698;4.886;2023-06-22T07:32:43;101941.47;;;22.68;48.87
1480;BME280;732;51.698;4.886;2023-06-22T07:35:11;101940.31;;;22.87;49.06
1480;BME280;732;51.698;4.886;2023-06-22T07:37:40;101945.03;;;23.04;49.38
1480;BME280;732;51.698;4.886;2023-06-22T07:40:11;101940.84;;;23.25;49.48
1480;BME280;732;51.698;4.886;2023-06-22T07:42:39;101937.13;;;23.43;48.06
1480;BME280;732;51.698;4.886;2023-06-22T07:45:08;101923.91;;;23.40;47.68
1480;BME280;732;51.698;4.886;2023-06-22T07:47:37;101922.38;;;23.73;48.65
1480;BME280;732;51.698;4.886;2023-06-22T07:50:06;101919.41;;;23.91;48.13
1480;BME280;732;51.698;4.886;2023-06-22T07:52:34;101920.66;;;24.01;47.70
1480;BME280;732;51.698;4.886;2023-06-22T07:55:04;101907.94;;;23.95;47.05
1480;BME280;732;51.698;4.886;2023-06-22T07:57:33;101895.53;;;24.04;47.24
1480;BME280;732;51.698;4.886;2023-06-22T08:00:05;101906.41;;;24.33;47.56
1480;BME280;732;51.698;4.886;2023-06-22T08:02:40;101888.50;;;24.47;47.19
1480;BME280;732;51.698;4.886;2023-06-22T08:05:09;101895.56;;;24.60;47.49
1480;BME280;732;51.698;4.886;2023-06-22T08:07:48;101872.44;;;24.56;46.27
1480;BME280;732;51.698;4.886;2023-06-22T08:10:17;101876.16;;;24.67;45.97
1480;BME280;732;51.698;4.886;2023-06-22T08:12:47;101856.78;;;24.73;45.84
1480;BME280;732;51.698;4.886;2023-06-22T08:15:16;101873.09;;;25.02;45.50
1480;BME280;732;51.698;4.886;2023-06-22T08:17:44;101866.59;;;25.09;45.61
1480;BME280;732;51.698;4.886;2023-06-22T08:20:13;101871.66;;;25.22;45.09
1480;BME280;732;51.698;4.886;2023-06-22T08:22:43;101849.19;;;25.25;45.57
1480;BME280;732;51.698;4.886;2023-06-22T08:25:11;101848.81;;;25.39;44.53
1480;BME280;732;51.698;4.886;2023-06-22T08:27:40;101860.34;;;25.41;44.37
1480;BME280;732;51.698;4.886;2023-06-22T08:30:14;101860.66;;;25.72;44.38
1480;BME280;732;51.698;4.886;2023-06-22T08:32:43;101860.03;;;25.64;44.58
1480;BME280;732;51.698;4.886;2023-06-22T08:35:11;101868.31;;;25.69;44.07
1480;BME280;732;51.698;4.886;2023-06-22T08:37:42;101845.25;;;25.43;44.09
1480;BME280;732;51.698;4.886;2023-06-22T08:40:11;101870.72;;;25.33;44.52
1480;BME280;732;51.698;4.886;2023-06-22T08:42:40;101858.63;;;25.12;44.70
1480;BME280;732;51.698;4.886;2023-06-22T08:45:10;101880.59;;;25.12;45.33
1480;BME280;732;51.698;4.886;2023-06-22T08:47:40;101880.22;;;25.03;45.07
1480;BME280;732;51.698;4.886;2023-06-22T08:50:10;101875.47;;;24.94;45.21
1480;BME280;732;51.698;4.886;2023-06-22T08:52:39;101885.91;;;24.97;45.83
1480;BME280;732;51.698;4.886;2023-06-22T08:55:10;101884.00;;;24.97;45.60
1480;BME280;732;51.698;4.886;2023-06-22T08:57:38;101868.25;;;24.87;46.30
1480;BME280;732;51.698;4.886;2023-06-22T09:00:09;101853.81;;;24.75;45.92
1480;BME280;732;51.698;4.886;2023-06-22T09:02:45;101859.84;;;24.77;45.91
1480;BME280;732;51.698;4.886;2023-06-22T09:05:15;101867.66;;;24.85;45.75
1480;BME280;732;51.698;4.886;2023-06-22T09:07:44;101854.69;;;24.81;45.83
1480;BME280;732;51.698;4.886;2023-06-22T09:10:13;101871.56;;;24.89;45.46
1480;BME280;732;51.698;4.886;2023-06-22T09:12:41;101864.22;;;24.73;45.14
1480;BME280;732;51.698;4.886;2023-06-22T09:15:10;101873.59;;;24.77;45.82
1480;BME280;732;51.698;4.886;2023-06-22T09:17:56;101881.25;;;24.75;45.72
1480;BME280;732;51.698;4.886;2023-06-22T09:20:24;101879.44;;;24.64;45.60
1480;BME280;732;51.698;4.886;2023-06-22T09:22:53;101876.91;;;24.62;46.63
1480;BME280;732;51.698;4.886;2023-06-22T09:25:22;101859.66;;;24.45;45.92
1480;BME280;732;51.698;4.886;2023-06-22T09:27:50;101850.63;;;24.10;46.81
1480;BME280;732;51.698;4.886;2023-06-22T09:30:19;101844.25;;;24.21;46.90
1480;BME280;732;51.698;4.886;2023-06-22T09:32:48;101847.13;;;23.81;46.00
1480;BME280;732;51.698;4.886;2023-06-22T09:35:17;101822.19;;;23.48;47.37
1480;BME280;732;51.698;4.886;2023-06-22T09:37:47;101843.50;;;23.46;46.99
1480;BME280;732;51.698;4.886;2023-06-22T09:40:15;101842.78;;;23.39;48.30
1480;BME280;732;51.698;4.886;2023-06-22T09:42:45;101844.63;;;23.62;48.45
1480;BME280;732;51.698;4.886;2023-06-22T09:45:16;101850.84;;;23.57;47.85
1480;BME280;732;51.698;4.886;2023-06-22T09:47:44;101846.28;;;23.63;49.32
1480;BME280;732;51.698;4.886;2023-06-22T09:50:13;101849.38;;;23.67;48.49
1480;BME280;732;51.698;4.886;2023-06-22T09:52:43;101843.59;;;23.51;48.24
1480;BME280;732;51.698;4.886;2023-06-22T09:55:15;101853.75;;;23.51;48.55
1480;BME280;732;51.698;4.886;2023-06-22T09:57:44;101856.06;;;23.30;48.48
1480;BME280;732;51.698;4.886;2023-06-22T10:00:13;101848.28;;;23.39;48.69
1480;BME280;732;51.698;4.886;2023-06-22T10:02:43;101854.25;;;23.36;48.80
1480;BME280;732;51.698;4.886;2023-06-22T10:05:12;101851.91;;;23.27;49.30
1480;BME280;732;51.698;4.886;2023-06-22T10:07:41;101846.94;;;23.12;48.98
1480;BME280;732;51.698;4.886;2023-06-22T10:10:12;101843.13;;;22.85;48.18
1480;BME280;732;51.698;4.886;2023-06-22T10:12:47;101854.38;;;23.00;48.99
1480;BME280;732;51.698;4.886;2023-06-22T10:15:16;101851.72;;;23.17;48.92
1480;BME280;732;51.698;4.886;2023-06-22T10:17:44;101843.69;;;23.27;48.20
1480;BME280;732;51.698;4.886;2023-06-22T10:20:13;101848.69;;;23.31;48.19
1480;BME280;732;51.698;4.886;2023-06-22T10:22:45;101846.22;;;23.58;47.33
1480;BME280;732;51.698;4.886;2023-06-22T10:25:13;101848.25;;;23.51;46.87
1480;BME280;732;51.698;4.886;2023-06-22T10:27:42;101855.91;;;23.08;47.33
1480;BME280;732;51.698;4.886;2023-06-22T10:30:12;101848.88;;;23.12;47.84
1480;BME280;732;51.698;4.886;2023-06-22T10:32:42;101826.25;;;23.17;47.69
1480;BME280;732;51.698;4.886;2023-06-22T10:35:11;101859.19;;;23.22;47.31
1480;BME280;732;51.698;4.886;2023-06-22T10:37:45;101844.19;;;23.24;48.75
1480;BME280;732;51.698;4.886;2023-06-22T10:40:16;101854.34;;;23.12;46.92
1480;BME280;732;51.698;4.886;2023-06-22T10:42:45;101862.22;;;23.37;47.98
1480;BME280;732;51.698;4.886;2023-06-22T10:45:14;101858.88;;;23.47;47.83
1480;BME280;732;51.698;4.886;2023-06-22T10:47:42;101834.91;;;23.25;48.42
1480;BME280;732;51.698;4.886;2023-06-22T10:50:11;101866.38;;;23.11;48.57
1480;BME280;732;51.698;4.886;2023-06-22T10:52:39;101826.72;;;22.49;48.82
1480;BME280;732;51.698;4.886;2023-06-22T10:55:10;101859.66;;;22.54;49.43
1480;BME280;732;51.698;4.886;2023-06-22T10:57:40;101857.81;;;22.00;50.94
1480;BME280;732;51.698;4.886;2023-06-22T11:00:13;101847.13;;;21.45;52.51
1480;BME280;732;51.698;4.886;2023-06-22T11:02:42;101851.88;;;21.31;54.57
1480;BME280;732;51.698;4.886;2023-06-22T11:05:11;101851.34;;;20.92;57.03
1480;BME280;732;51.698;4.886;2023-06-22T11:07:42;101863.56;;;20.45;59.08
1480;BME280;732;51.698;4.886;2023-06-22T11:10:12;101837.50;;;20.05;60.58
1480;BME280;732;51.698;4.886;2023-06-22T11:12:42;101851.75;;;20.08;61.79
1480;BME280;732;51.698;4.886;2023-06-22T11:15:12;101858.50;;;19.98;63.21
1480;BME280;732;51.698;4.886;2023-06-22T11:17:41;101864.41;;;19.95;64.50
1480;BME280;732;51.698;4.886;2023-06-22T11:20:11;101837.69;;;19.47;64.73
1480;BME280;732;51.698;4.886;2023-06-22T11:22:40;101824.13;;;18.81;70.31
1480;BME280;732;51.698;4.886;2023-06-22T11:25:10;101864.34;;;18.59;72.99
1480;BME280;732;51.698;4.886;2023-06-22T11:27:40;101867.50;;;18.56;72.86
1480;BME280;732;51.698;4.886;2023-06-22T11:30:09;101769.53;;;17.97;73.13
1480;BME280;732;51.698;4.886;2023-06-22T11:32:38;101843.66;;;18.31;73.53
1480;BME280;732;51.698;4.886;2023-06-22T11:35:08;101850.13;;;18.30;73.06
1480;BME280;732;51.698;4.886;2023-06-22T11:37:37;101854.72;;;18.43;73.09
1480;BME280;732;51.698;4.886;2023-06-22T11:40:07;101845.34;;;18.32;73.44
1480;BME280;732;51.698;4.886;2023-06-22T11:42:37;101577.66;;;16.83;73.11
1480;BME280;732;51.698;4.886;2023-06-22T11:45:07;101848.03;;;18.19;73.75
1480;BME280;732;51.698;4.886;2023-06-22T11:47:36;101835.09;;;18.14;74.24
1480;BME280;732;51.698;4.886;2023-06-22T11:50:06;101832.59;;;18.12;74.49
1480;BME280;732;51.698;4.886;2023-06-22T11:52:35;101804.19;;;17.95;73.85
1480;BME280;732;51.698;4.886;2023-06-22T11:55:05;101825.72;;;18.03;73.81
1480;BME280;732;51.698;4.886;2023-06-22T11:57:36;101821.28;;;17.95;74.46
1480;BME280;732;51.698;4.886;2023-06-22T12:00:07;101810.44;;;17.95;74.78
1480;BME280;732;51.698;4.886;2023-06-22T12:02:43;101772.44;;;17.75;74.78
1480;BME280;732;51.698;4.886;2023-06-22T12:05:12;101815.84;;;18.29;74.26
1480;BME280;732;51.698;4.886;2023-06-22T12:07:40;101825.66;;;18.37;74.26
1480;BME280;732;51.698;4.886;2023-06-22T12:10:09;101813.97;;;18.50;73.97
1480;BME280;732;51.698;4.886;2023-06-22T12:12:39;101796.03;;;18.42;73.54
1480;BME280;732;51.698;4.886;2023-06-22T12:15:10;101806.22;;;18.60;73.25
1480;BME280;732;51.698;4.886;2023-06-22T12:17:39;101763.84;;;18.45;73.25
1480;BME280;732;51.698;4.886;2023-06-22T12:20:09;101789.13;;;18.46;73.70
1480;BME280;732;51.698;4.886;2023-06-22T12:22:38;101800.81;;;18.46;74.25
1480;BME280;732;51.698;4.886;2023-06-22T12:25:07;101782.00;;;18.45;74.22
1480;BME280;732;51.698;4.886;2023-06-22T12:27:38;101784.91;;;18.50;74.23
1480;BME280;732;51.698;4.886;2023-06-22T12:30:08;101763.38;;;18.35;73.69
1480;BME280;732;51.698;4.886;2023-06-22T12:32:37;101796.81;;;18.56;73.83
1480;BME280;732;51.698;4.886;2023-06-22T12:35:07;101786.59;;;18.51;73.93
1480;BME280;732;51.698;4.886;2023-06-22T12:37:41;101789.31;;;18.51;74.09
1480;BME280;732;51.698;4.886;2023-06-22T12:40:11;101783.69;;;18.46;74.02
1480;BME280;732;51.698;4.886;2023-06-22T12:42:41;101783.91;;;18.44;73.86
1480;BME280;732;51.698;4.886;2023-06-22T12:45:10;101784.28;;;18.28;73.57
1480;BME280;732;51.698;4.886;2023-06-22T12:47:39;101790.34;;;18.30;73.95
1480;BME280;732;51.698;4.886;2023-06-22T12:50:08;101796.66;;;18.37;74.13
1480;BME280;732;51.698;4.886;2023-06-22T12:52:37;101781.19;;;18.38;74.09
1480;BME280;732;51.698;4.886;2023-06-22T12:55:09;101763.81;;;18.32;74.74
1480;BME280;732;51.698;4.886;2023-06-22T12:57:38;101776.56;;;18.32;74.22
1480;BME280;732;51.698;4.886;2023-06-22T13:00:09;101787.66;;;18.30;74.38
1480;BME280;732;51.698;4.886;2023-06-22T13:02:38;101758.81;;;18.16;74.71
1480;BME280;732;51.698;4.886;2023-06-22T13:05:07;101774.88;;;18.30;74.51
1480;BME280;732;51.698;4.886;2023-06-22T13:07:36;101751.94;;;18.20;74.56
1480;BME280;732;51.698;4.886;2023-06-22T13:10:06;101763.19;;;18.30;75.26
1480;BME280;732;51.698;4.886;2023-06-22T13:12:35;101774.25;;;18.35;75.44
1480;BME280;732;51.698;4.886;2023-06-22T13:15:07;101766.78;;;18.37;75.40
1480;BME280;732;51.698;4.886;2023-06-22T13:17:36;101748.34;;;18.33;75.34
1480;BME280;732;51.698;4.886;2023-06-22T13:20:06;101767.38;;;18.46;75.27
1480;BME280;732;51.698;4.886;2023-06-22T13:22:35;101761.31;;;18.51;75.88
1480;BME280;732;51.698;4.886;2023-06-22T13:25:08;101759.03;;;18.41;75.56
1480;BME280;732;51.698;4.886;2023-06-22T13:27:40;101732.28;;;18.44;74.69
1480;BME280;732;51.698;4.886;2023-06-22T13:30:11;101730.19;;;18.26;74.55
1480;BME280;732;51.698;4.886;2023-06-22T13:32:41;101754.03;;;18.18;74.27
1480;BME280;732;51.698;4.886;2023-06-22T13:35:10;101750.09;;;18.00;74.81
1480;BME280;732;51.698;4.886;2023-06-22T13:37:39;101706.03;;;17.71;75.55